sensor_id;sensor_type;location;lat;lon;timestamp;P1;durP1;ratioP1;P2;durP2;ratioP2
12591;SDS011;6361;52.120;5.108;2023-12-04T00:01:52;25.70;;;12.73;;
12591;SDS011;6361;52.120;5.108;2023-12-04T00:04:17;22.33;;;12.35;;
12591;SDS011;6361;52.120;5.108;2023-12-04T00:06:43;24.00;;;12.65;;
12591;SDS011;6361;52.120;5.108;2023-12-04T00:09:08;23.73;;;12.60;;
12591;SDS011;6361;52.120;5.108;2023-12-04T00:11:33;26.27;;;13.35;;
12591;SDS011;6361;52.120;5.108;2023-12-04T00:13:59;25.45;;;13.07;;
12591;SDS011;6361;52.120;5.108;2023-12-04T00:16:24;24.10;;;13.13;;
12591;SDS011;6361;52.120;5.108;2023-12-04T00:18:50;23.88;;;12.32;;
12591;SDS011;6361;52.120;5.108;2023-12-04T00:21:15;25.55;;;12.38;;
12591;SDS011;6361;52.120;5.108;2023-12-04T00:23:41;23.75;;;12.68;;
12591;SDS011;6361;52.120;5.108;2023-12-04T00:26:06;23.77;;;12.40;;
12591;SDS011;6361;52.120;5.108;2023-12-04T00:28:32;23.67;;;11.98;;
12591;SDS011;6361;52.120;5.108;2023-12-04T00:30:57;23.23;;;12.18;;
12591;SDS011;6361;52.120;5.108;2023-12-04T00:33:22;22.83;;;11.98;;
12591;SDS011;6361;52.120;5.108;2023-12-04T00:35:48;23.48;;;12.43;;
12591;SDS011;6361;52.120;5.108;2023-12-04T00:38:13;24.40;;;12.90;;
12591;SDS011;6361;52.120;5.108;2023-12-04T00:40:39;24.08;;;12.95;;
12591;SDS011;6361;52.120;5.108;2023-12-04T00:43:04;23.95;;;12.57;;
12591;SDS011;6361;52.120;5.108;2023-12-04T00:45:29;22.85;;;11.90;;
12591;SDS011;6361;52.120;5.108;2023-12-04T00:47:55;22.17;;;12.23;;
12591;SDS011;6361;52.120;5.108;2023-12-04T00:50:21;22.55;;;11.90;;
12591;SDS011;6361;52.120;5.108;2023-12-04T00:52:47;24.90;;;12.38;;
12591;SDS011;6361;52.120;5.108;2023-12-04T00:55:14;22.58;;;11.98;;
12591;SDS011;6361;52.120;5.108;2023-12-04T00:57:40;24.77;;;11.90;;
12591;SDS011;6361;52.120;5.108;2023-12-04T01:00:05;22.73;;;12.23;;
12591;SDS011;6361;52.120;5.108;2023-12-04T01:02:31;24.33;;;12.30;;
12591;SDS011;6361;52.120;5.108;2023-12-04T01:04:57;23.10;;;12.27;;
12591;SDS011;6361;52.120;5.108;2023-12-04T01:07:22;22.50;;;12.10;;
12591;SDS011;6361;52.120;5.108;2023-12-04T01:09:47;25.02;;;11.98;;
12591;SDS011;6361;52.120;5.108;2023-12-04T01:12:13;25.15;;;12.95;;
12591;SDS011;6361;52.120;5.108;2023-12-04T01:14:38;26.52;;;13.30;;
12591;SDS011;6361;52.120;5.108;2023-12-04T01:17:04;26.30;;;13.50;;
12591;SDS011;6361;52.120;5.108;2023-12-04T01:19:29;23.30;;;13.30;;
12591;SDS011;6361;52.120;5.108;2023-12-04T01:21:54;25.15;;;13.38;;
12591;SDS011;6361;52.120;5.108;2023-12-04T01:24:20;27.05;;;13.65;;
12591;SDS011;6361;52.120;5.108;2023-12-04T01:26:45;27.20;;;14.35;;
12591;SDS011;6361;52.120;5.108;2023-12-04T01:29:10;24.00;;;13.07;;
12591;SDS011;6361;52.120;5.108;2023-12-04T01:31:36;26.58;;;13.35;;
12591;SDS011;6361;52.120;5.108;2023-12-04T01:34:01;25.30;;;13.52;;
12591;SDS011;6361;52.120;5.108;2023-12-04T01:36:26;25.60;;;13.73;;
12591;SDS011;6361;52.120;5.108;2023-12-04T01:38:52;27.20;;;14.27;;
12591;SDS011;6361;52.120;5.108;2023-12-04T01:41:17;22.85;;;13.10;;
12591;SDS011;6361;52.120;5.108;2023-12-04T01:43:45;22.25;;;12.68;;
12591;SDS011;6361;52.120;5.108;2023-12-04T01:46:10;24.27;;;13.05;;
12591;SDS011;6361;52.120;5.108;2023-12-04T01:48:36;29.00;;;13.52;;
12591;SDS011;6361;52.120;5.108;2023-12-04T01:51:03;25.92;;;13.52;;
12591;SDS011;6361;52.120;5.108;2023-12-04T01:53:31;24.67;;;12.95;;
12591;SDS011;6361;52.120;5.108;2023-12-04T01:55:57;25.40;;;13.43;;
12591;SDS011;6361;52.120;5.108;2023-12-04T01:58:22;24.70;;;13.40;;
12591;SDS011;6361;52.120;5.108;2023-12-04T02:00:48;24.58;;;12.82;;
12591;SDS011;6361;52.120;5.108;2023-12-04T02:03:13;24.05;;;13.02;;
12591;SDS011;6361;52.120;5.108;2023-12-04T02:05:39;24.95;;;13.20;;
12591;SDS011;6361;52.120;5.108;2023-12-04T02:08:04;27.10;;;13.70;;
12591;SDS011;6361;52.120;5.108;2023-12-04T02:10:30;25.45;;;13.63;;
12591;SDS011;6361;52.120;5.108;2023-12-04T02:12:55;25.52;;;13.32;;
12591;SDS011;6361;52.120;5.108;2023-12-04T02:15:21;23.42;;;13.02;;
12591;SDS011;6361;52.120;5.108;2023-12-04T02:17:46;26.55;;;13.65;;
12591;SDS011;6361;52.120;5.108;2023-12-04T02:20:12;26.10;;;12.82;;
12591;SDS011;6361;52.120;5.108;2023-12-04T02:22:38;26.92;;;13.00;;
12591;SDS011;6361;52.120;5.108;2023-12-04T02:25:03;24.92;;;13.10;;
12591;SDS011;6361;52.120;5.108;2023-12-04T02:27:49;24.65;;;13.18;;
12591;SDS011;6361;52.120;5.108;2023-12-04T02:30:16;28.83;;;14.30;;
12591;SDS011;6361;52.120;5.108;2023-12-04T02:32:44;24.77;;;12.68;;
12591;SDS011;6361;52.120;5.108;2023-12-04T02:35:10;27.85;;;13.98;;
12591;SDS011;6361;52.120;5.108;2023-12-04T02:37:37;23.50;;;12.88;;
12591;SDS011;6361;52.120;5.108;2023-12-04T02:40:03;25.45;;;13.07;;
12591;SDS011;6361;52.120;5.108;2023-12-04T02:42:29;28.83;;;13.48;;
12591;SDS011;6361;52.120;5.108;2023-12-04T02:44:55;26.00;;;13.95;;
12591;SDS011;6361;52.120;5.108;2023-12-04T02:47:20;26.10;;;13.05;;
12591;SDS011;6361;52.120;5.108;2023-12-04T02:49:45;26.25;;;13.30;;
12591;SDS011;6361;52.120;5.108;2023-12-04T02:52:11;25.05;;;13.93;;
12591;SDS011;6361;52.120;5.108;2023-12-04T02:54:36;25.52;;;12.90;;
12591;SDS011;6361;52.120;5.108;2023-12-04T02:57:01;24.92;;;13.27;;
12591;SDS011;6361;52.120;5.108;2023-12-04T02:59:27;23.63;;;13.13;;
12591;SDS011;6361;52.120;5.108;2023-12-04T03:01:52;26.08;;;13.27;;
12591;SDS011;6361;52.120;5.108;2023-12-04T03:04:19;25.30;;;13.30;;
12591;SDS011;6361;52.120;5.108;2023-12-04T03:06:44;24.88;;;13.32;;
12591;SDS011;6361;52.120;5.108;2023-12-04T03:09:10;23.90;;;13.00;;
12591;SDS011;6361;52.120;5.108;2023-12-04T03:11:38;24.70;;;13.57;;
12591;SDS011;6361;52.120;5.108;2023-12-04T03:14:04;25.67;;;12.93;;
12591;SDS011;6361;52.120;5.108;2023-12-04T03:16:30;24.88;;;12.98;;
12591;SDS011;6361;52.120;5.108;2023-12-04T03:18:55;27.90;;;13.13;;
12591;SDS011;6361;52.120;5.108;2023-12-04T03:21:20;24.10;;;13.18;;
12591;SDS011;6361;52.120;5.108;2023-12-04T03:23:46;25.92;;;13.43;;
12591;SDS011;6361;52.120;5.108;2023-12-04T03:26:11;25.17;;;13.57;;
12591;SDS011;6361;52.120;5.108;2023-12-04T03:28:38;23.77;;;12.60;;
12591;SDS011;6361;52.120;5.108;2023-12-04T03:31:03;26.30;;;13.40;;
12591;SDS011;6361;52.120;5.108;2023-12-04T03:33:29;25.60;;;13.30;;
12591;SDS011;6361;52.120;5.108;2023-12-04T03:35:54;25.45;;;13.10;;
12591;SDS011;6361;52.120;5.108;2023-12-04T03:38:20;26.17;;;13.13;;
12591;SDS011;6361;52.120;5.108;2023-12-04T03:40:45;23.77;;;12.85;;
12591;SDS011;6361;52.120;5.108;2023-12-04T03:43:10;24.10;;;12.80;;
12591;SDS011;6361;52.120;5.108;2023-12-04T03:45:36;23.80;;;12.70;;
12591;SDS011;6361;52.120;5.108;2023-12-04T03:48:01;21.75;;;12.05;;
12591;SDS011;6361;52.120;5.108;2023-12-04T03:50:26;24.63;;;12.98;;
12591;SDS011;6361;52.120;5.108;2023-12-04T03:52:52;23.40;;;12.50;;
12591;SDS011;6361;52.120;5.108;2023-12-04T03:55:17;21.50;;;12.05;;
12591;SDS011;6361;52.120;5.108;2023-12-04T03:57:44;22.58;;;11.98;;
12591;SDS011;6361;52.120;5.108;2023-12-04T04:00:10;22.83;;;12.05;;
12591;SDS011;6361;52.120;5.108;2023-12-04T04:02:36;22.00;;;11.57;;
12591;SDS011;6361;52.120;5.108;2023-12-04T04:05:01;20.75;;;11.65;;
12591;SDS011;6361;52.120;5.108;2023-12-04T04:07:27;23.23;;;12.35;;
12591;SDS011;6361;52.120;5.108;2023-12-04T04:09:52;21.48;;;12.00;;
12591;SDS011;6361;52.120;5.108;2023-12-04T04:12:17;22.65;;;11.05;;
12591;SDS011;6361;52.120;5.108;2023-12-04T04:14:43;22.98;;;11.88;;
12591;SDS011;6361;52.120;5.108;2023-12-04T04:17:08;21.27;;;12.00;;
12591;SDS011;6361;52.120;5.108;2023-12-04T04:19:33;23.20;;;12.13;;
12591;SDS011;6361;52.120;5.108;2023-12-04T04:21:59;21.02;;;11.35;;
12591;SDS011;6361;52.120;5.108;2023-12-04T04:24:24;22.00;;;12.13;;
12591;SDS011;6361;52.120;5.108;2023-12-04T04:26:49;22.27;;;11.52;;
12591;SDS011;6361;52.120;5.108;2023-12-04T04:29:15;20.58;;;11.50;;
12591;SDS011;6361;52.120;5.108;2023-12-04T04:31:40;19.23;;;10.63;;
12591;SDS011;6361;52.120;5.108;2023-12-04T04:34:05;20.98;;;11.50;;
12591;SDS011;6361;52.120;5.108;2023-12-04T04:36:31;25.00;;;12.07;;
12591;SDS011;6361;52.120;5.108;2023-12-04T04:38:56;21.60;;;11.50;;
12591;SDS011;6361;52.120;5.108;2023-12-04T04:41:21;21.20;;;11.25;;
12591;SDS011;6361;52.120;5.108;2023-12-04T04:43:47;19.60;;;11.25;;
12591;SDS011;6361;52.120;5.108;2023-12-04T04:46:12;20.95;;;11.45;;
12591;SDS011;6361;52.120;5.108;2023-12-04T04:48:37;20.58;;;11.07;;
12591;SDS011;6361;52.120;5.108;2023-12-04T04:51:03;20.17;;;10.68;;
12591;SDS011;6361;52.120;5.108;2023-12-04T04:53:29;20.52;;;11.30;;
12591;SDS011;6361;52.120;5.108;2023-12-04T04:55:55;19.40;;;11.07;;
12591;SDS011;6361;52.120;5.108;2023-12-04T04:58:20;20.35;;;11.02;;
12591;SDS011;6361;52.120;5.108;2023-12-04T05:00:45;22.83;;;11.50;;
12591;SDS011;6361;52.120;5.108;2023-12-04T05:03:11;19.75;;;11.32;;
12591;SDS011;6361;52.120;5.108;2023-12-04T05:05:37;21.05;;;11.35;;
12591;SDS011;6361;52.120;5.108;2023-12-04T05:08:02;22.23;;;11.15;;
12591;SDS011;6361;52.120;5.108;2023-12-04T05:10:27;18.77;;;11.00;;
12591;SDS011;6361;52.120;5.108;2023-12-04T05:12:53;18.80;;;11.15;;
12591;SDS011;6361;52.120;5.108;2023-12-04T05:15:18;20.92;;;10.45;;
12591;SDS011;6361;52.120;5.108;2023-12-04T05:17:44;20.15;;;10.52;;
12591;SDS011;6361;52.120;5.108;2023-12-04T05:20:09;22.00;;;11.68;;
12591;SDS011;6361;52.120;5.108;2023-12-04T05:22:35;20.48;;;10.90;;
12591;SDS011;6361;52.120;5.108;2023-12-04T05:25:00;21.55;;;11.27;;
12591;SDS011;6361;52.120;5.108;2023-12-04T05:27:26;19.33;;;10.93;;
12591;SDS011;6361;52.120;5.108;2023-12-04T05:29:51;19.95;;;10.93;;
12591;SDS011;6361;52.120;5.108;2023-12-04T05:32:17;19.48;;;10.63;;
12591;SDS011;6361;52.120;5.108;2023-12-04T05:34:42;19.90;;;10.63;;
12591;SDS011;6361;52.120;5.108;2023-12-04T05:37:08;21.70;;;11.40;;
12591;SDS011;6361;52.120;5.108;2023-12-04T05:39:33;20.55;;;11.05;;
12591;SDS011;6361;52.120;5.108;2023-12-04T05:41:59;21.45;;;10.63;;
12591;SDS011;6361;52.120;5.108;2023-12-04T05:44:24;19.13;;;10.77;;
12591;SDS011;6361;52.120;5.108;2023-12-04T05:46:49;22.15;;;10.70;;
12591;SDS011;6361;52.120;5.108;2023-12-04T05:49:15;20.67;;;11.02;;
12591;SDS011;6361;52.120;5.108;2023-12-04T05:51:40;19.08;;;10.88;;
12591;SDS011;6361;52.120;5.108;2023-12-04T05:54:05;21.10;;;11.15;;
12591;SDS011;6361;52.120;5.108;2023-12-04T05:56:31;19.08;;;11.20;;
12591;SDS011;6361;52.120;5.108;2023-12-04T05:58:56;19.13;;;10.88;;
12591;SDS011;6361;52.120;5.108;2023-12-04T06:01:21;23.10;;;11.70;;
12591;SDS011;6361;52.120;5.108;2023-12-04T06:03:47;21.08;;;11.55;;
12591;SDS011;6361;52.120;5.108;2023-12-04T06:06:12;18.95;;;11.30;;
12591;SDS011;6361;52.120;5.108;2023-12-04T06:08:38;17.58;;;11.02;;
12591;SDS011;6361;52.120;5.108;2023-12-04T06:11:03;20.33;;;11.10;;
12591;SDS011;6361;52.120;5.108;2023-12-04T06:13:29;20.50;;;11.10;;
12591;SDS011;6361;52.120;5.108;2023-12-04T06:15:54;20.45;;;11.82;;
12591;SDS011;6361;52.120;5.108;2023-12-04T06:18:19;21.75;;;11.93;;
12591;SDS011;6361;52.120;5.108;2023-12-04T06:20:47;19.48;;;10.80;;
12591;SDS011;6361;52.120;5.108;2023-12-04T06:23:13;21.20;;;11.43;;
12591;SDS011;6361;52.120;5.108;2023-12-04T06:25:39;19.20;;;11.13;;
12591;SDS011;6361;52.120;5.108;2023-12-04T06:28:05;19.20;;;10.70;;
12591;SDS011;6361;52.120;5.108;2023-12-04T06:30:31;17.08;;;10.32;;
12591;SDS011;6361;52.120;5.108;2023-12-04T06:32:56;20.70;;;11.10;;
12591;SDS011;6361;52.120;5.108;2023-12-04T06:35:22;18.85;;;11.32;;
12591;SDS011;6361;52.120;5.108;2023-12-04T06:37:48;18.98;;;10.68;;
12591;SDS011;6361;52.120;5.108;2023-12-04T06:40:14;19.50;;;10.35;;
12591;SDS011;6361;52.120;5.108;2023-12-04T06:42:40;18.50;;;10.65;;
12591;SDS011;6361;52.120;5.108;2023-12-04T06:45:06;17.60;;;10.48;;
12591;SDS011;6361;52.120;5.108;2023-12-04T06:47:32;19.13;;;11.13;;
12591;SDS011;6361;52.120;5.108;2023-12-04T06:49:59;18.60;;;10.60;;
12591;SDS011;6361;52.120;5.108;2023-12-04T06:52:24;17.63;;;10.48;;
12591;SDS011;6361;52.120;5.108;2023-12-04T06:54:50;21.40;;;10.77;;
12591;SDS011;6361;52.120;5.108;2023-12-04T06:57:15;17.35;;;10.80;;
12591;SDS011;6361;52.120;5.108;2023-12-04T06:59:43;18.20;;;10.23;;
12591;SDS011;6361;52.120;5.108;2023-12-04T07:02:08;18.33;;;11.45;;
12591;SDS011;6361;52.120;5.108;2023-12-04T07:04:33;16.35;;;10.02;;
12591;SDS011;6361;52.120;5.108;2023-12-04T07:06:59;18.77;;;10.20;;
12591;SDS011;6361;52.120;5.108;2023-12-04T07:09:30;16.55;;;10.20;;
12591;SDS011;6361;52.120;5.108;2023-12-04T07:11:57;15.75;;;9.52;;
12591;SDS011;6361;52.120;5.108;2023-12-04T07:14:25;15.30;;;9.85;;
12591;SDS011;6361;52.120;5.108;2023-12-04T07:16:51;16.98;;;10.55;;
12591;SDS011;6361;52.120;5.108;2023-12-04T07:19:16;17.30;;;9.65;;
12591;SDS011;6361;52.120;5.108;2023-12-04T07:21:42;17.40;;;9.93;;
12591;SDS011;6361;52.120;5.108;2023-12-04T07:24:08;16.15;;;9.98;;
12591;SDS011;6361;52.120;5.108;2023-12-04T07:26:34;17.00;;;9.88;;
12591;SDS011;6361;52.120;5.108;2023-12-04T07:29:00;18.48;;;10.15;;
12591;SDS011;6361;52.120;5.108;2023-12-04T07:31:25;15.90;;;9.65;;
12591;SDS011;6361;52.120;5.108;2023-12-04T07:33:52;15.45;;;9.20;;
12591;SDS011;6361;52.120;5.108;2023-12-04T07:36:21;16.30;;;9.60;;
12591;SDS011;6361;52.120;5.108;2023-12-04T07:38:46;15.60;;;9.40;;
12591;SDS011;6361;52.120;5.108;2023-12-04T07:41:12;15.60;;;9.38;;
12591;SDS011;6361;52.120;5.108;2023-12-04T07:43:38;15.60;;;9.65;;
12591;SDS011;6361;52.120;5.108;2023-12-04T07:46:04;16.30;;;9.25;;
12591;SDS011;6361;52.120;5.108;2023-12-04T07:48:30;14.02;;;8.95;;
12591;SDS011;6361;52.120;5.108;2023-12-04T07:50:56;15.15;;;9.50;;
12591;SDS011;6361;52.120;5.108;2023-12-04T07:53:21;16.08;;;9.00;;
12591;SDS011;6361;52.120;5.108;2023-12-04T07:55:47;15.07;;;8.95;;
12591;SDS011;6361;52.120;5.108;2023-12-04T07:58:14;14.35;;;9.00;;
12591;SDS011;6361;52.120;5.108;2023-12-04T08:00:40;17.60;;;9.88;;
12591;SDS011;6361;52.120;5.108;2023-12-04T08:03:05;15.35;;;9.48;;
12591;SDS011;6361;52.120;5.108;2023-12-04T08:05:32;14.98;;;8.98;;
12591;SDS011;6361;52.120;5.108;2023-12-04T08:07:57;17.05;;;9.60;;
12591;SDS011;6361;52.120;5.108;2023-12-04T08:10:23;13.82;;;9.15;;
12591;SDS011;6361;52.120;5.108;2023-12-04T08:12:48;15.95;;;8.80;;
12591;SDS011;6361;52.120;5.108;2023-12-04T08:15:14;15.02;;;8.60;;
12591;SDS011;6361;52.120;5.108;2023-12-04T08:17:39;14.23;;;8.45;;
12591;SDS011;6361;52.120;5.108;2023-12-04T08:20:05;14.93;;;8.52;;
12591;SDS011;6361;52.120;5.108;2023-12-04T08:22:31;15.25;;;8.57;;
12591;SDS011;6361;52.120;5.108;2023-12-04T08:24:56;14.60;;;8.93;;
12591;SDS011;6361;52.120;5.108;2023-12-04T08:27:23;14.15;;;8.45;;
12591;SDS011;6361;52.120;5.108;2023-12-04T08:29:49;14.60;;;8.82;;
12591;SDS011;6361;52.120;5.108;2023-12-04T08:32:14;15.32;;;8.68;;
12591;SDS011;6361;52.120;5.108;2023-12-04T08:34:40;13.77;;;8.30;;
12591;SDS011;6361;52.120;5.108;2023-12-04T08:37:05;16.00;;;8.48;;
12591;SDS011;6361;52.120;5.108;2023-12-04T08:39:33;12.93;;;8.30;;
12591;SDS011;6361;52.120;5.108;2023-12-04T08:41:58;13.75;;;8.20;;
12591;SDS011;6361;52.120;5.108;2023-12-04T08:44:23;13.55;;;8.30;;
12591;SDS011;6361;52.120;5.108;2023-12-04T08:46:49;12.43;;;7.75;;
12591;SDS011;6361;52.120;5.108;2023-12-04T08:49:15;13.85;;;8.73;;
12591;SDS011;6361;52.120;5.108;2023-12-04T08:51:40;12.43;;;7.80;;
12591;SDS011;6361;52.120;5.108;2023-12-04T08:54:06;12.32;;;7.63;;
12591;SDS011;6361;52.120;5.108;2023-12-04T08:56:32;12.35;;;7.82;;
12591;SDS011;6361;52.120;5.108;2023-12-04T08:58:57;11.93;;;7.85;;
12591;SDS011;6361;52.120;5.108;2023-12-04T09:01:23;11.95;;;7.47;;
12591;SDS011;6361;52.120;5.108;2023-12-04T09:03:48;13.93;;;8.13;;
12591;SDS011;6361;52.120;5.108;2023-12-04T09:06:13;13.15;;;7.65;;
12591;SDS011;6361;52.120;5.108;2023-12-04T09:08:40;12.13;;;7.30;;
12591;SDS011;6361;52.120;5.108;2023-12-04T09:11:08;12.32;;;7.68;;
12591;SDS011;6361;52.120;5.108;2023-12-04T09:13:33;12.60;;;7.63;;
12591;SDS011;6361;52.120;5.108;2023-12-04T09:15:59;11.52;;;7.38;;
12591;SDS011;6361;52.120;5.108;2023-12-04T09:18:25;11.18;;;6.95;;
12591;SDS011;6361;52.120;5.108;2023-12-04T09:20:50;10.77;;;7.15;;
12591;SDS011;6361;52.120;5.108;2023-12-04T09:23:15;11.45;;;7.25;;
12591;SDS011;6361;52.120;5.108;2023-12-04T09:25:41;10.52;;;7.00;;
12591;SDS011;6361;52.120;5.108;2023-12-04T09:28:06;11.38;;;7.10;;
12591;SDS011;6361;52.120;5.108;2023-12-04T09:30:33;10.30;;;6.85;;
12591;SDS011;6361;52.120;5.108;2023-12-04T09:32:59;11.15;;;7.45;;
12591;SDS011;6361;52.120;5.108;2023-12-04T09:35:24;12.75;;;7.05;;
12591;SDS011;6361;52.120;5.108;2023-12-04T09:37:49;11.93;;;6.65;;
12591;SDS011;6361;52.120;5.108;2023-12-04T09:40:15;11.40;;;7.18;;
12591;SDS011;6361;52.120;5.108;2023-12-04T09:42:41;12.00;;;7.00;;
12591;SDS011;6361;52.120;5.108;2023-12-04T09:45:07;9.73;;;6.82;;
12591;SDS011;6361;52.120;5.108;2023-12-04T09:47:33;12.13;;;7.40;;
12591;SDS011;6361;52.120;5.108;2023-12-04T09:49:59;12.50;;;8.02;;
12591;SDS011;6361;52.120;5.108;2023-12-04T09:52:25;12.40;;;7.70;;
12591;SDS011;6361;52.120;5.108;2023-12-04T09:54:52;12.10;;;7.13;;
12591;SDS011;6361;52.120;5.108;2023-12-04T09:57:18;14.50;;;7.97;;
12591;SDS011;6361;52.120;5.108;2023-12-04T09:59:44;13.05;;;7.70;;
12591;SDS011;6361;52.120;5.108;2023-12-04T10:02:09;12.20;;;7.53;;
12591;SDS011;6361;52.120;5.108;2023-12-04T10:04:35;13.95;;;8.23;;
12591;SDS011;6361;52.120;5.108;2023-12-04T10:07:01;15.73;;;7.97;;
12591;SDS011;6361;52.120;5.108;2023-12-04T10:09:27;12.65;;;7.55;;
12591;SDS011;6361;52.120;5.108;2023-12-04T10:11:53;14.15;;;8.23;;
12591;SDS011;6361;52.120;5.108;2023-12-04T10:14:21;11.73;;;7.22;;
12591;SDS011;6361;52.120;5.108;2023-12-04T10:16:46;11.43;;;7.50;;
12591;SDS011;6361;52.120;5.108;2023-12-04T10:19:23;11.88;;;7.45;;
12591;SDS011;6361;52.120;5.108;2023-12-04T10:21:51;11.93;;;7.43;;
12591;SDS011;6361;52.120;5.108;2023-12-04T10:24:27;11.40;;;7.45;;
12591;SDS011;6361;52.120;5.108;2023-12-04T10:26:53;12.10;;;7.60;;
12591;SDS011;6361;52.120;5.108;2023-12-04T10:29:19;13.98;;;7.32;;
12591;SDS011;6361;52.120;5.108;2023-12-04T10:31:44;11.43;;;7.80;;
12591;SDS011;6361;52.120;5.108;2023-12-04T10:34:09;11.93;;;7.45;;
12591;SDS011;6361;52.120;5.108;2023-12-04T10:36:35;12.10;;;7.28;;
12591;SDS011;6361;52.120;5.108;2023-12-04T10:39:01;11.98;;;7.35;;
12591;SDS011;6361;52.120;5.108;2023-12-04T10:41:30;11.30;;;7.30;;
12591;SDS011;6361;52.120;5.108;2023-12-04T10:43:56;11.35;;;7.28;;
12591;SDS011;6361;52.120;5.108;2023-12-04T10:46:22;13.23;;;7.60;;
12591;SDS011;6361;52.120;5.108;2023-12-04T10:48:51;14.02;;;7.53;;
12591;SDS011;6361;52.120;5.108;2023-12-04T10:51:17;12.68;;;7.95;;
12591;SDS011;6361;52.120;5.108;2023-12-04T10:53:43;12.18;;;7.65;;
12591;SDS011;6361;52.120;5.108;2023-12-04T10:56:10;13.48;;;7.80;;
12591;SDS011;6361;52.120;5.108;2023-12-04T10:58:42;12.57;;;7.90;;
12591;SDS011;6361;52.120;5.108;2023-12-04T11:01:08;13.85;;;8.48;;
12591;SDS011;6361;52.120;5.108;2023-12-04T11:03:39;12.48;;;8.23;;
12591;SDS011;6361;52.120;5.108;2023-12-04T11:06:08;16.10;;;7.88;;
12591;SDS011;6361;52.120;5.108;2023-12-04T11:08:35;12.48;;;7.38;;
12591;SDS011;6361;52.120;5.108;2023-12-04T11:11:01;14.75;;;8.25;;
12591;SDS011;6361;52.120;5.108;2023-12-04T11:13:40;12.52;;;7.95;;
12591;SDS011;6361;52.120;5.108;2023-12-04T11:16:27;11.80;;;7.88;;
12591;SDS011;6361;52.120;5.108;2023-12-04T11:19:06;13.25;;;8.07;;
12591;SDS011;6361;52.120;5.108;2023-12-04T11:21:47;12.75;;;8.55;;
12591;SDS011;6361;52.120;5.108;2023-12-04T11:24:13;12.43;;;8.38;;
12591;SDS011;6361;52.120;5.108;2023-12-04T11:26:40;14.57;;;8.40;;
12591;SDS011;6361;52.120;5.108;2023-12-04T11:29:05;15.85;;;8.48;;
12591;SDS011;6361;52.120;5.108;2023-12-04T11:31:31;14.98;;;9.40;;
12591;SDS011;6361;52.120;5.108;2023-12-04T11:34:03;13.77;;;8.35;;
12591;SDS011;6361;52.120;5.108;2023-12-04T11:36:29;15.15;;;8.73;;
12591;SDS011;6361;52.120;5.108;2023-12-04T11:38:55;13.85;;;8.50;;
12591;SDS011;6361;52.120;5.108;2023-12-04T11:41:22;14.18;;;8.80;;
12591;SDS011;6361;52.120;5.108;2023-12-04T11:43:48;13.80;;;8.82;;
12591;SDS011;6361;52.120;5.108;2023-12-04T11:46:14;16.70;;;9.57;;
12591;SDS011;6361;52.120;5.108;2023-12-04T11:48:53;15.85;;;9.57;;
12591;SDS011;6361;52.120;5.108;2023-12-04T11:54:03;14.30;;;9.10;;
12591;SDS011;6361;52.120;5.108;2023-12-04T11:56:29;14.98;;;9.50;;
12591;SDS011;6361;52.120;5.108;2023-12-04T11:58:55;18.13;;;10.68;;
12591;SDS011;6361;52.120;5.108;2023-12-04T12:01:35;18.85;;;10.43;;
12591;SDS011;6361;52.120;5.108;2023-12-04T12:04:01;14.82;;;10.02;;
12591;SDS011;6361;52.120;5.108;2023-12-04T12:06:27;16.02;;;9.73;;
12591;SDS011;6361;52.120;5.108;2023-12-04T12:08:52;14.77;;;9.88;;
12591;SDS011;6361;52.120;5.108;2023-12-04T12:11:19;14.80;;;9.50;;
12591;SDS011;6361;52.120;5.108;2023-12-04T12:13:45;16.45;;;10.05;;
12591;SDS011;6361;52.120;5.108;2023-12-04T12:16:10;15.38;;;9.73;;
12591;SDS011;6361;52.120;5.108;2023-12-04T12:18:36;16.90;;;10.18;;
12591;SDS011;6361;52.120;5.108;2023-12-04T12:21:01;17.58;;;10.55;;
12591;SDS011;6361;52.120;5.108;2023-12-04T12:23:27;16.80;;;10.35;;
12591;SDS011;6361;52.120;5.108;2023-12-04T12:25:52;16.50;;;9.85;;
12591;SDS011;6361;52.120;5.108;2023-12-04T12:28:18;16.80;;;10.57;;
12591;SDS011;6361;52.120;5.108;2023-12-04T12:30:44;16.10;;;10.32;;
12591;SDS011;6361;52.120;5.108;2023-12-04T12:33:12;18.00;;;10.43;;
12591;SDS011;6361;52.120;5.108;2023-12-04T12:35:39;15.90;;;10.05;;
12591;SDS011;6361;52.120;5.108;2023-12-04T12:38:04;15.13;;;9.73;;
12591;SDS011;6361;52.120;5.108;2023-12-04T12:40:30;16.23;;;10.30;;
12591;SDS011;6361;52.120;5.108;2023-12-04T12:43:05;16.42;;;10.10;;
12591;SDS011;6361;52.120;5.108;2023-12-04T12:45:41;17.15;;;10.20;;
12591;SDS011;6361;52.120;5.108;2023-12-04T12:48:12;17.15;;;10.57;;
12591;SDS011;6361;52.120;5.108;2023-12-04T12:50:38;18.27;;;10.50;;
12591;SDS011;6361;52.120;5.108;2023-12-04T12:53:03;17.48;;;9.90;;
12591;SDS011;6361;52.120;5.108;2023-12-04T12:55:28;16.83;;;11.07;;
12591;SDS011;6361;52.120;5.108;2023-12-04T12:57:57;17.00;;;10.43;;
12591;SDS011;6361;52.120;5.108;2023-12-04T13:00:22;18.17;;;11.20;;
12591;SDS011;6361;52.120;5.108;2023-12-04T13:02:48;17.63;;;10.40;;
12591;SDS011;6361;52.120;5.108;2023-12-04T13:05:14;17.92;;;10.30;;
12591;SDS011;6361;52.120;5.108;2023-12-04T13:07:39;17.42;;;10.98;;
12591;SDS011;6361;52.120;5.108;2023-12-04T13:10:06;16.73;;;10.63;;
12591;SDS011;6361;52.120;5.108;2023-12-04T13:12:33;20.25;;;10.55;;
12591;SDS011;6361;52.120;5.108;2023-12-04T13:14:59;17.15;;;10.65;;
12591;SDS011;6361;52.120;5.108;2023-12-04T13:17:24;18.40;;;10.38;;
12591;SDS011;6361;52.120;5.108;2023-12-04T13:19:50;18.00;;;10.45;;
12591;SDS011;6361;52.120;5.108;2023-12-04T13:22:15;16.35;;;9.80;;
12591;SDS011;6361;52.120;5.108;2023-12-04T13:24:40;16.67;;;9.43;;
12591;SDS011;6361;52.120;5.108;2023-12-04T13:27:06;15.98;;;10.30;;
12591;SDS011;6361;52.120;5.108;2023-12-04T13:29:31;18.33;;;10.75;;
12591;SDS011;6361;52.120;5.108;2023-12-04T13:31:57;16.05;;;10.45;;
12591;SDS011;6361;52.120;5.108;2023-12-04T13:34:22;16.08;;;10.38;;
12591;SDS011;6361;52.120;5.108;2023-12-04T13:36:48;16.95;;;10.10;;
12591;SDS011;6361;52.120;5.108;2023-12-04T13:39:13;19.98;;;11.85;;
12591;SDS011;6361;52.120;5.108;2023-12-04T13:41:45;18.90;;;11.02;;
12591;SDS011;6361;52.120;5.108;2023-12-04T13:44:29;16.20;;;10.07;;
12591;SDS011;6361;52.120;5.108;2023-12-04T13:46:55;16.10;;;10.23;;
12591;SDS011;6361;52.120;5.108;2023-12-04T13:49:21;17.55;;;11.38;;
12591;SDS011;6361;52.120;5.108;2023-12-04T13:51:46;15.38;;;9.93;;
12591;SDS011;6361;52.120;5.108;2023-12-04T13:54:14;17.48;;;10.18;;
12591;SDS011;6361;52.120;5.108;2023-12-04T13:56:51;15.18;;;9.90;;
12591;SDS011;6361;52.120;5.108;2023-12-04T13:59:20;17.75;;;10.65;;
12591;SDS011;6361;52.120;5.108;2023-12-04T14:01:46;15.18;;;9.73;;
12591;SDS011;6361;52.120;5.108;2023-12-04T14:04:14;14.63;;;9.88;;
12591;SDS011;6361;52.120;5.108;2023-12-04T14:06:39;15.20;;;9.60;;
12591;SDS011;6361;52.120;5.108;2023-12-04T14:09:05;14.82;;;9.70;;
12591;SDS011;6361;52.120;5.108;2023-12-04T14:11:36;16.35;;;9.88;;
12591;SDS011;6361;52.120;5.108;2023-12-04T14:14:01;16.00;;;9.80;;
12591;SDS011;6361;52.120;5.108;2023-12-04T14:16:27;14.70;;;9.75;;
12591;SDS011;6361;52.120;5.108;2023-12-04T14:18:53;15.02;;;9.35;;
12591;SDS011;6361;52.120;5.108;2023-12-04T14:21:19;14.68;;;9.02;;
12591;SDS011;6361;52.120;5.108;2023-12-04T14:23:44;17.52;;;9.52;;
12591;SDS011;6361;52.120;5.108;2023-12-04T14:26:09;15.90;;;10.15;;
12591;SDS011;6361;52.120;5.108;2023-12-04T14:28:35;15.18;;;9.80;;
12591;SDS011;6361;52.120;5.108;2023-12-04T14:31:00;15.55;;;10.13;;
12591;SDS011;6361;52.120;5.108;2023-12-04T14:33:25;18.02;;;10.40;;
12591;SDS011;6361;52.120;5.108;2023-12-04T14:35:51;17.92;;;10.18;;
12591;SDS011;6361;52.120;5.108;2023-12-04T14:38:16;14.57;;;9.77;;